Gabriel Soares

Chief Scout - Flamengo
17 Feb 2028
Thursday
Process

Personality

Adaptability (12) Ambition (2) Controversy (1) Loyalty (13) Pressure (15) Professionalism (10) Sportsmanship (10) Temperament (11)

Profile

Coaching Style Democratic
License Continental A
Determination 6
Man Management 16
Motivating 7
Discipline 8
Job Satisfaction
100%
Fatigue
0%
Role Chief Scout
Wage 102.1K p/w
Contract 14.03.2029

Performance

Behaviour Good
Training Effectiveness
60%
Player Development
35%
Injury Prevention
65%
Tactical Implementation
70%

Recent Events

Assessed a player now
Attended a recruitment meeting now
Recommended a transfer target now
Recommended a transfer target now
Assessed a player 7d ago
Assessed a player 7d ago
Assessed a player 7d ago
Assessed a player 7d ago

Currently Monitoring

285
Player Club Status Ability Confidence Watched Last Observed Latest Vote
Tyler Adams Bournemouth Active 153 / 156 40% 12 15.02.2028 -
Tino Livramento Newcastle United Active 160 / 161 40% 9 15.02.2028 -
Mats Wieffer Brighton Active 153 / 151 40% 13 15.02.2028 -
Federico Ravaglia Shakhtar Active 148 / 140 40% 1 15.02.2028 -
Vítězslav Jaroš Liverpool Active 142 / 146 40% 1 15.02.2028 -
Álex Padilla Athletic Bilbao Active 141 / 138 40% 1 15.02.2028 -
Ryan Sessegnon Fulham Active 153 / 149 40% 14 14.02.2028 -
Amar Dedić Watford Active 146 / 149 40% 6 14.02.2028 -
Diogo Costa Manchester City Active 166 / 169 40% 1 13.02.2028 -
Illan Meslier Middlesbrough Active 140 / 140 40% 1 13.02.2028 -
Stefano Turati Empoli Active 145 / 140 40% 1 13.02.2028 -
Sandro Tonali Tottenham Active 172 / 175 40% 7 11.02.2028 -
William Saliba Arsenal Active 178 / 178 40% 8 11.02.2028 -
Youssouf Fofana AC Milan Active 157 / 157 40% 7 11.02.2028 -
Reece James Chelsea Active 175 / 176 40% 5 10.02.2028 -
Dan Ballard Cardiff City Active 148 / 146 40% 4 10.02.2028 -
André Wolverhampton Active 149 / 150 40% 5 09.02.2028 -
Aaron Hickey Brentford Active 151 / 151 40% 8 09.02.2028 -
Habib Diarra Sunderland Active 149 / 149 40% 2 09.02.2028 -
Noah Sadiki Sunderland Active 151 / 152 40% 7 08.02.2028 -
Abdukodir Khusanov Coventry City Active 160 / 161 40% 8 08.02.2028 -
Conor Gallagher Tottenham Active 154 / 157 40% 7 08.02.2028 -
Jayden Bogle Leeds United Active 142 / 142 40% 3 07.02.2028 -
Gabriel Gudmundsson Leeds United Active 147 / 145 40% 4 07.02.2028 -
Aaron Ramsdale Southampton Active 149 / 153 40% 1 07.02.2028 -
Hugo Souza Corinthians Active 139 / 140 40% 1 07.02.2028 -
Dmytro Riznyk West Ham United Active 139 / 141 40% 1 07.02.2028 -
Levi Colwill Chelsea Active 161 / 164 40% 7 05.02.2028 -
Micky van de Ven Tottenham Active 165 / 161 40% 2 05.02.2028 -
Pedro Porro Tottenham Active 152 / 153 40% 7 04.02.2028 -
Jake O'Brien Everton Active 149 / 150 40% 7 04.02.2028 -
Alexis Mac Allister Liverpool Active 171 / 165 40% 9 04.02.2028 -
Nico González Newcastle United Active 171 / 166 40% 6 03.02.2028 -
Jakub Kiwior Everton Active 160 / 161 40% 7 03.02.2028 -
James Garner Everton Active 152 / 154 40% 6 02.02.2028 -
Jurriën Timber Arsenal Active 170 / 167 40% 3 02.02.2028 -
Nicolás Domínguez Huddersfield Town Active 148 / 147 40% 3 02.02.2028 -
Moisés Caicedo Chelsea Active 171 / 173 40% 10 01.02.2028 -
Igor Burnley Active 146 / 143 40% 5 29.01.2028 -
Quilindschy Hartman Burnley Active 153 / 150 40% 3 29.01.2028 -
Matthijs de Ligt Manchester United Active 165 / 166 40% 7 28.01.2028 -
Ethan Ampadu Leeds United Active 148 / 148 40% 2 28.01.2028 -
Diogo Dalot Manchester United Active 148 / 152 40% 1 28.01.2028 -
Declan Rice Arsenal Active 186 / 185 40% 7 26.01.2028 -
Maximiliano Araújo Crystal Palace Active 151 / 153 40% 5 25.01.2028 -
Enzo Fernández Manchester City Active 170 / 172 40% 6 25.01.2028 -
Nathan Collins Brentford Active 153 / 151 40% 8 24.01.2028 -
Conor Bradley Bristol City Active 159 / 159 40% 5 24.01.2028 -
Anton Stach Leeds United Active 156 / 152 40% 1 24.01.2028 -
Jack Hinshelwood Brighton Active 150 / 156 40% 5 22.01.2028 -
Matteo Ruggeri Aston Villa Active 155 / 155 40% 3 18.01.2028 -
Leif Davis Ipswich Town Active 147 / 143 40% 2 15.01.2028 -
Cheick Doucouré Crystal Palace Active 152 / 149 40% 4 15.01.2028 -
Neco Williams Nottingham Forest Active 146 / 148 40% 4 15.01.2028 -
Miloš Kerkez Liverpool Active 160 / 161 40% 4 11.01.2028 -
Dodo Fiorentina Active 155 / 153 40% 1 11.01.2028 -
Elliot Anderson Manchester City Active 159 / 158 40% 5 09.01.2028 -
Nico O'Reilly Manchester City Active 158 / 159 40% 4 07.01.2028 -
Johan Manzambi Newcastle United Active 149 / 150 40% 1 07.01.2028 -
Wesley Fofana Chelsea Active 174 / 168 40% 6 06.01.2028 -
Marc Guéhi Manchester City Active 170 / 170 40% 8 06.01.2028 -
Yankuba Minteh Brighton Active 158 / 157 40% 3 13.12.2027 -
Hugo Ekitiké Liverpool Active 170 / 165 40% 1 13.12.2027 -
Cole Palmer Chelsea Active 185 / 177 40% 1 13.12.2027 -
Eric Ramires Bragantino Active 132 / 128 83% 1 03.12.2027 Approve
Anton Stach Leeds United Lost 151 / 152 40% 10 01.12.2027 -
Jan Paul van Hecke Tottenham Active 158 / 161 40% 6 01.12.2027 -
Mao Hosoya Everton Negotiating 134 / 135 67% 1 01.12.2027 -
Mateo Cassierra Atlético Mineiro Active 136 / 135 83% 1 01.12.2027 Approve
Piero Hincapié Arsenal Active 161 / 159 40% 5 25.11.2027 -
Ryan Gravenberch Liverpool Active 170 / 163 40% 6 20.11.2027 -
Adrien Truffert Bournemouth Active 151 / 153 40% 9 18.11.2027 -
Dominik Szoboszlai Liverpool Active 165 / 168 40% 6 17.11.2027 -
Maxence Lacroix Everton Active 152 / 155 40% 2 15.11.2027 -
Ismaël Bennacer Malmo FF Active 151 / 146 40% 5 13.11.2027 -
Ian Maatsen Aston Villa Active 161 / 158 40% 3 09.11.2027 -
Kobbie Mainoo Leicester City Active 160 / 163 40% 1 29.10.2027 -
Manuel Ugarte Portsmouth Active 153 / 149 40% 1 25.10.2027 -
Adam Wharton Crystal Palace Active 163 / 158 40% 12 23.10.2027 -
Diego Gómez Manchester City Active 144 / 150 40% 2 20.10.2027 -
Lisandro Martínez Manchester United Active 161 / 157 40% 2 18.10.2027 -
Matheus Nunes Manchester City Active 158 / 163 40% 3 15.10.2027 -
Sven Botman Newcastle United Active 164 / 162 40% 7 13.10.2027 -
Bruno Guimarães Arsenal Active 172 / 171 40% 4 10.10.2027 -
Riccardo Calafiori Hull City Active 160 / 163 40% 3 08.10.2027 -
Gabriel Arsenal Active 177 / 175 40% 3 05.10.2027 -
Hector Ramirez Newcastle United Active 158 / 157 40% 4 29.09.2027 -
Roméo Lavia Blackburn Rovers Active 148 / 156 40% 1 26.09.2027 -
Malo Gusto Chelsea Active 150 / 156 40% 5 25.09.2027 -
Takehiro Tomiyasu Crystal Palace Active 144 / 151 40% 2 23.09.2027 -
Benjamin White Arsenal Active 159 / 163 40% 5 23.09.2027 -
Souza Tottenham Active 128 / 134 40% 1 21.09.2027 -
Archie Gray Derby County Active 152 / 152 40% 1 18.09.2027 -
João Gomes Aston Villa Active 146 / 148 40% 1 16.09.2027 -
Joško Gvardiol Napoli Active 165 / 167 40% 2 15.09.2027 -
Alex Scott Bournemouth Active 153 / 156 40% 2 28.08.2027 -
Lewis Hall Liverpool Active 156 / 157 40% 1 28.08.2027 -
Pedro Malheiro Al Wasl Active 150 / 145 40% 1 22.08.2027 -
Keane Lewis-Potter Brentford Active 141 / 147 40% 1 21.08.2027 -
Calvin Bassey Fulham Active 152 / 152 40% 1 21.08.2027 -
Alessandro Bastoni Inter Active 171 / 169 40% 1 20.08.2027 -
Wesley AS Roma Active 158 / 156 40% 1 20.08.2027 -
Mario Gila AC Milan Active 156 / 157 40% 1 20.08.2027 -
Marco Brescianini Fiorentina Active 145 / 145 40% 2 18.08.2027 -
Strahinja Pavlović AC Milan Active 154 / 151 40% 1 18.08.2027 -
Adrián Bernabé Parma Active 144 / 143 40% 1 18.08.2027 -
Ardon Jashari AC Milan Active 145 / 144 40% 1 17.08.2027 -
Victor Castillo Ceará Active 135 / 134 40% 1 17.08.2027 -
Pierre Kalulu Juventus Active 159 / 156 40% 3 12.08.2027 -
Martin Vitík Bologna Active 145 / 146 40% 1 12.08.2027 -
Nahuel Molina AS Roma Active 156 / 152 40% 2 10.08.2027 -
Alessandro Buongiorno Sassuolo Active 163 / 161 40% 2 10.08.2027 -
Giorgio Scalvini Atalanta Active 157 / 155 40% 1 10.08.2027 -
Curtis Jones Inter Active 166 / 159 40% 4 09.08.2027 -
Yehor Yarmoliuk Brentford Active 147 / 154 40% 7 07.08.2027 -
Nordi Mukiele Sunderland Active 152 / 150 40% 8 06.08.2027 -
Noussair Mazraoui Manchester United Active 154 / 155 40% 6 03.08.2027 -
Georginio Rutter Brighton Active 145 / 150 40% 2 19.07.2027 -
Jérémy Doku Manchester City Active 174 / 169 40% 3 19.07.2027 -
Malick Fofana Sunderland Active 144 / 150 40% 1 19.07.2027 -
Dara O'Shea Ipswich Town Active 144 / 137 40% 1 30.06.2027 -
Jeremie Frimpong Liverpool Active 162 / 161 40% 4 29.06.2027 -
Juanlu Bournemouth Active 145 / 150 40% 5 26.06.2027 -
Martín Zubimendi Arsenal Active 160 / 165 40% 1 26.06.2027 -
Shea Charles Southampton Active 135 / 140 40% 1 23.06.2027 -
Matheus Cunha Manchester United Active 160 / 158 40% 3 31.05.2027 -
Jadon Sancho Manchester United Active 156 / 152 40% 1 31.05.2027 -
Florentino Luís Ipswich Town Active 143 / 139 40% 6 30.05.2027 -
Rúben Dias Manchester City Active 171 / 171 40% 1 27.05.2027 Needs More Info
Bradley Barcola Liverpool Active 168 / 162 40% 3 26.05.2027 -
Xavi Simons Tottenham Active 162 / 158 40% 3 26.05.2027 -
Dejan Kulusevski Tottenham Active 166 / 165 40% 1 26.05.2027 -
Jacob Ramsey Newcastle United Active 156 / 150 40% 1 22.05.2027 -
Amad Manchester United Active 161 / 155 40% 1 21.05.2027 -
Derensili Sanches Fernandes Huddersfield Town Active 123 / 125 40% 1 21.05.2027 -
Saša Lukić Ipswich Town Active 136 / 141 40% 5 19.05.2027 -
Mikkel Damsgaard Brentford Active 141 / 145 40% 3 18.05.2027 -
Antoine Semenyo Manchester City Active 167 / 158 40% 1 18.05.2027 -
Scott Twine Bristol City Active 120 / 122 40% 1 18.05.2027 -
Phil Foden Manchester City Active 181 / 173 40% 1 18.05.2027 -
Mohammed Kudus Tottenham Active 155 / 157 40% 1 16.05.2027 -
Quinten Timber Crystal Palace Active 149 / 149 40% 11 07.05.2027 -
Alexander Isak Liverpool Active 182 / 175 40% 2 05.05.2027 -
Finn Azaz Southampton Active 126 / 129 40% 2 05.05.2027 -
Youri Tielemans Manchester United Active 155 / 160 40% 1 03.05.2027 -
Rayan Cherki Manchester City Active 160 / 165 40% 1 02.05.2027 -
Bryan Mbeumo Manchester United Active 153 / 157 40% 1 02.05.2027 -
Iliman N'Diaye Everton Active 167 / 159 40% 1 01.05.2027 -
Hwang In-Beom Porto Active 148 / 145 40% 9 22.04.2027 -
Rafik Guitane Estoril Praia Active 125 / 130 40% 2 18.04.2027 -
Francisco Moura Lusitânia Lourosa Active 141 / 138 40% 4 18.04.2027 -
Alejandro Zendejas Club America Active 140 / 140 40% 2 15.04.2027 -
Lewis Ferguson Bologna Active 144 / 143 40% 2 14.04.2027 -
Omar Alderete Sunderland Active 153 / 151 40% 1 14.04.2027 -
Alberto Costa Porto Active 139 / 145 40% 10 12.04.2027 -
Roberto Fernández Braga Active 139 / 143 40% 3 12.04.2027 -
Dodi Lukébakio Benfica Active 145 / 143 40% 9 11.04.2027 -
Carlos Vicente Birmingham Active 151 / 142 40% 8 11.04.2027 -
Tomás Araújo Benfica Active 153 / 148 40% 3 10.04.2027 -
Leandro Barreiro Benfica Active 146 / 138 40% 3 08.04.2027 -
Nicolò Rovella Lazio Active 151 / 150 40% 4 08.04.2027 -
Nadir Zortea Bologna Active 145 / 139 40% 1 07.04.2027 -
Xaver Schlager Nottingham Forest Active 157 / 151 40% 8 06.04.2027 -
Gonçalo Inácio Sporting CP Active 151 / 149 40% 3 06.04.2027 -
Makan Aïko Tondela Active 128 / 118 40% 1 06.04.2027 -
Ricard Sánchez Estoril Praia Active 124 / 125 40% 1 06.04.2027 -
Luis Quintero Torreense Active 124 / 125 40% 1 06.04.2027 -
Nuno Tavares Lazio Active 154 / 146 40% 1 04.04.2027 -
Rayan Aït-Nouri Manchester City Active 141 / 145 40% 1 04.04.2027 -
Heorhii Sudakov Benfica Active 153 / 148 40% 3 01.04.2027 -
Willian Pacho Paris Saint-Germain Active 163 / 162 40% 1 01.04.2027 -
Barış Alper Yılmaz Galatasaray Active 144 / 149 40% 6 29.03.2027 -
Zeno Debast Sporting CP Active 145 / 143 40% 3 27.03.2027 -
Iván Fresneda Sporting CP Active 145 / 142 40% 3 26.03.2027 -
Kevin Vazquez Cruz Azul Active 131 / 138 40% 4 26.03.2027 -
Jan Bednarek Porto Active 152 / 146 40% 4 25.03.2027 -
Daniel Muñoz Nottingham Forest Active 151 / 147 40% 1 25.03.2027 -
Sergi Altimira Sporting CP Active 135 / 138 40% 2 24.03.2027 -
Murillo Nottingham Forest Active 159 / 154 40% 2 24.03.2027 -
Vanderson Monaco Active 141 / 144 40% 3 22.03.2027 -
Hákon Arnar Haraldsson LOSC Lille Active 152 / 148 40% 1 20.03.2027 -
João Neves Paris Saint-Germain Active 160 / 169 40% 4 17.03.2027 -
João Simões Sporting CP Active 132 / 138 40% 1 17.03.2027 -
Malick Thiaw West Ham United Active 147 / 153 40% 1 17.03.2027 -
Eduardo Quaresma Sporting CP Active 144 / 143 40% 2 16.03.2027 -
Jesús Angulo Tigres Active 134 / 134 40% 6 15.03.2027 -
Antonee Robinson Fulham Active 153 / 151 40% 6 13.03.2027 -
Geny Sporting CP Active 139 / 144 40% 4 12.03.2027 -
Orbelín Pineda Monterrey Active 142 / 139 40% 4 12.03.2027 -
Lovro Zvonarek Estrela da Amadora Active 118 / 128 40% 1 11.03.2027 -
Víctor Gómez Braga Active 143 / 140 40% 3 09.03.2027 -
Pablo Rosario Porto Active 136 / 139 40% 1 08.03.2027 -
Ainsley Maitland-Niles Everton Active 145 / 138 40% 2 07.03.2027 -
Erick Sánchez OGC Nice Active 141 / 139 40% 4 06.03.2027 -
Sander Berge Fulham Active 147 / 144 40% 2 03.03.2027 -
Harry Wilson Leeds United Active 143 / 142 40% 3 02.03.2027 -
Carlos Alcaraz Everton Active 140 / 144 40% 2 02.03.2027 -
Michael Kayode Brentford Active 146 / 152 40% 2 28.02.2027 -
Lewis Cook Bournemouth Active 150 / 148 40% 5 26.02.2027 -
Jhon Arias Palmeiras Active 143 / 138 40% 4 24.02.2027 -
Richard Ledezma Guadalajara Active 142 / 135 40% 1 24.02.2027 -
Luís Henrique Inter Active 136 / 141 40% 1 23.02.2027 -
Giacomo Raspadori Atalanta Active 145 / 147 40% 3 21.02.2027 -
Ludovic Blas Stade Rennais Active 139 / 141 40% 1 21.02.2027 -
Mario Dorgeles Braga Active 133 / 136 40% 1 21.02.2027 -
Roberto Alvarado Monaco Active 145 / 142 40% 1 18.02.2027 -
Gonzalo Fulham Active 146 / 145 40% 1 18.02.2027 -
Victor Froholdt Porto Active 155 / 159 40% 2 13.02.2027 -
Tiago Santos LOSC Lille Active 142 / 144 40% 2 13.02.2027 -
Carlos Augusto Inter Active 147 / 151 40% 1 09.02.2027 -
William Gomes Porto Active 147 / 144 40% 2 08.02.2027 -
Marquinhos Spartak Moscow Active 139 / 127 40% 1 08.02.2027 -
Alfonso Trezza Arouca Active 127 / 122 40% 2 06.02.2027 -
Tom Fellows Southampton Active 139 / 130 40% 1 06.02.2027 -
Lee Hyun-Ju Arouca Active 127 / 124 40% 1 06.02.2027 -
Ibrahim Sangaré Nottingham Forest Active 153 / 146 40% 5 04.02.2027 -
Danilo Botafogo Active 136 / 138 40% 1 04.02.2027 -
Osame Sahraoui LOSC Lille Active 140 / 143 40% 1 31.01.2027 -
Matheus Pereira Cruzeiro Active 140 / 142 40% 2 30.01.2027 -
Sofiane Diop OGC Nice Active 147 / 141 40% 2 27.01.2027 -
José Manuel López Palmeiras Active 139 / 135 40% 2 27.01.2027 -
Roméo Beney Famalicao Active 109 / 117 40% 2 27.01.2027 -
Lorent Tolaj Plymouth Argyle Active 122 / 118 40% 1 23.01.2027 -
Duk Atlas Active 115 / 114 40% 1 23.01.2027 -
Callum Hudson-Odoi Nottingham Forest Active 153 / 149 40% 5 19.01.2027 -
James Maddison Tottenham Active 150 / 154 40% 4 19.01.2027 -
Kevin Fulham Active 144 / 148 40% 1 18.01.2027 -
Lucas Duarte Felgueiras Active 105 / 106 40% 3 16.01.2027 -
Yousef Salech Cardiff City Active 120 / 126 40% 1 16.01.2027 -
Themba Ngcobo SuperSport United Active 110 / 114 40% 1 16.01.2027 -
Rémi Lemoine Chamois Niortais Active 160 / 157 40% 5 14.01.2027 -
Leon Bailey Olympiacos Active 148 / 139 40% 1 14.01.2027 -
Pau Víctor AVS Active 133 / 137 40% 1 13.01.2027 -
Mathias Jørgensen Blackburn Rovers Active 113 / 119 40% 1 13.01.2027 -
Vinícius Lopes Santa Clara Active 122 / 120 40% 2 11.01.2027 -
Lucas Villalba Botafogo Active 132 / 125 40% 1 11.01.2027 -
Gustavo Silva Vitoria Guimaraes Active 125 / 124 40% 1 06.01.2027 -
Bamba Dieng Crvena Zvezda Active 129 / 127 40% 1 06.01.2027 -
Ozziel Herrera Tigres Active 126 / 128 40% 1 27.12.2026 -
Tom Cannon Sheffield United Active 126 / 128 40% 1 26.12.2026 -
Olivier Boscagli Brighton Active 150 / 145 40% 1 21.12.2026 -
Jean-Philippe Mateta Crystal Palace Active 156 / 150 40% 7 29.11.2026 -
Federico Chiesa Liverpool Active 154 / 153 40% 7 29.11.2026 -
Erick Reyes Toluca Active 137 / 140 40% 1 27.11.2026 -
Marcus Tavernier Bournemouth Active 145 / 145 40% 3 26.11.2026 -
Matheus Gonçalves Al-Ahli Active 131 / 127 40% 1 23.11.2026 -
Randal Kolo Muani Juventus Active 151 / 147 40% 4 21.11.2026 -
Maduka Okoye Udinese Active 138 / 137 40% 1 19.11.2026 -
Yoan Bonny Inter Active 151 / 147 40% 1 15.11.2026 -
Othmane Maamma Watford Active 120 / 126 40% 1 14.11.2026 -
Luís Guilherme Sporting CP Active 123 / 130 40% 1 10.11.2026 -
Ritsu Doan Benfica Active 147 / 147 40% 2 02.11.2026 -
Harvey Barnes Newcastle United Active 145 / 143 40% 2 01.11.2026 -
Dominic Solanke Tottenham Active 144 / 144 40% 3 23.10.2026 -
Luis Suárez Chelsea Active 161 / 155 40% 3 21.10.2026 -
Pepê Porto Active 138 / 143 40% 1 16.10.2026 -
Dan Ndoye Nottingham Forest Active 150 / 150 40% 2 09.10.2026 -
Gonçalo Ramos AC Milan Active 149 / 152 40% 4 09.10.2026 -
Josh King Chelsea Active 141 / 144 40% 1 09.10.2026 -
Ayoub Oufkir AZ Active 133 / 132 40% 1 02.10.2026 -
Mathias De Amorim Famalicao Active 127 / 133 40% 1 30.09.2026 -
Marcus Rashford Manchester United Active 163 / 152 40% 7 28.09.2026 -
Noni Madueke Arsenal Active 154 / 151 40% 3 23.09.2026 -
Yeremy Pino Crystal Palace Active 151 / 148 40% 1 22.09.2026 -
Ferdi Kadıoğlu Brighton Active 144 / 149 40% 2 21.09.2026 -
Kauã Elias Anderlecht Active 131 / 133 40% 1 19.09.2026 -
Breno Bidon Corinthians Active 133 / 133 40% 1 12.09.2026 -
Jarrod Bowen West Ham United Active 156 / 152 40% 3 11.09.2026 -
João Pedro Chelsea Active 145 / 149 40% 1 07.09.2026 Needs More Info
Mason Mount Manchester United Active 148 / 149 40% 1 05.09.2026 -
Ben Gannon Doak Bournemouth Active 136 / 145 40% 1 04.09.2026 -
Ebere Eze Arsenal Active 160 / 155 40% 1 02.09.2026 -
Caleb Yirenkyi Coventry City Active 130 / 135 40% 1 27.08.2026 -
Matty Cash Aston Villa Active 144 / 151 40% 1 26.08.2026 -
Stefanos Tzimas Brighton Active 125 / 136 40% 1 23.08.2026 -
Viktor Tsygankov Ajax Active 139 / 152 40% 1 19.08.2026 -
Brais Méndez Columbus Crew Active 140 / 145 40% 1 15.08.2026 -
Gianluca Prestianni Benfica Active 139 / 135 40% 1 13.08.2026 -
Rodrygo Real Madrid Active 162 / 160 40% 1 10.08.2026 -
Mikel Oyarzábal Real Sociedad Active 156 / 152 40% 1 07.08.2026 -
Giuliano Simeone Atlético Madrid Active 151 / 150 40% 1 06.08.2026 -
Álvaro Carreras Real Madrid Active 154 / 150 40% 1 05.08.2026 -
Takefusa Kubo Real Sociedad Active 161 / 151 40% 1 04.08.2026 -
Ilaix Moriba Celta Active 145 / 146 40% 1 04.08.2026 -
Nicolò Tresoldi Club Brugge Active 127 / 132 40% 1 03.08.2026 -